EGNX/EMA METAR and TAF weather

Enter ICAO airport designator
Station Type Date Time Source
EGNX METAR 2020/07/11 21:50 UTC NOAA

EGNX 112150Z 27004KT CAVOK 10/06 Q1028


Station Type Date Time Source
EGNX Decoded METAR 2020/07/11 21:50 UTC NOAA

East Midlands, United Kingdom (EGNX) 52-50N 001-20W
Jul 11, 2020 - 05:50 PM EDT / 2020.07.11 2150 UTC
Wind: from the W (270 degrees) at 5 MPH (4 KT):0
Visibility: greater than 7 mile(s):0
Temperature: 50 F (10 C)
Dew Point: 42 F (6 C)
Relative Humidity: 76%
Pressure (altimeter): 30.36 in. Hg (1028 hPa)
ob: EGNX 112150Z 27004KT CAVOK 10/06 Q1028
cycle: 22

Station Type Date Time Source
EGNX TAF 2020/07/11 18:09 UTC NOAA

TAF TAF EGNX 111653Z 1118/1218 28006KT 9999 FEW045 PROB30 1200/1208 8000

Example: see airport list